Time;durP1;ratioP1;P1;durP2;ratioP2;P2;SDS_P1;SDS_P2;PMS_P1;PMS_P2;Temp;Humidity;BMP_temperature;BMP_pressure;BME280_temperature;BME280_humidity;BME280_pressure;Samples;Min_cycle;Max_cycle;Signal;HPM_P1;HPM_P2
2023/04/18 00:01:44;;;;;;;15.93;10.80;;;6.80;99.90;;;;;;5014275;28;20939;-74
2023/04/18 00:04:12;;;;;;;17.90;10.43;;;6.80;99.90;;;;;;5013752;28;20943;-74
2023/04/18 00:06:38;;;;;;;16.80;10.20;;;6.80;99.90;;;;;;5014355;28;20551;-74
2023/04/18 00:09:05;;;;;;;22.17;11.13;;;6.80;99.90;;;;;;5013936;28;20498;-74
2023/04/18 00:11:33;;;;;;;14.00;10.63;;;6.80;99.90;;;;;;5014357;28;20504;-74
2023/04/18 00:13:59;;;;;;;24.73;11.13;;;6.80;99.90;;;;;;5013747;28;20470;-74
2023/04/18 00:16:27;;;;;;;15.20;10.83;;;6.70;99.90;;;;;;5013388;28;20938;-74
2023/04/18 00:18:56;;;;;;;21.77;10.97;;;6.60;99.90;;;;;;5014065;28;20553;-74
2023/04/18 00:21:24;;;;;;;15.70;11.50;;;6.60;99.90;;;;;;5014133;28;20857;-75
2023/04/18 00:23:51;;;;;;;16.97;11.47;;;6.50;99.90;;;;;;5010105;28;20547;-74
2023/04/18 00:26:17;;;;;;;16.33;10.53;;;6.50;99.90;;;;;;5013426;28;20974;-74
2023/04/18 00:28:44;;;;;;;17.63;11.10;;;6.50;99.90;;;;;;5013680;28;20483;-74
2023/04/18 00:31:10;;;;;;;18.47;12.13;;;6.40;99.90;;;;;;5013469;28;20465;-74
2023/04/18 00:33:37;;;;;;;21.83;12.10;;;6.40;99.90;;;;;;5013885;28;20459;-75
2023/04/18 00:36:06;;;;;;;17.40;11.80;;;6.30;99.90;;;;;;5013545;28;20471;-75
2023/04/18 00:38:32;;;;;;;20.57;11.67;;;6.30;99.90;;;;;;5013263;28;20529;-74
2023/04/18 00:40:59;;;;;;;16.17;11.90;;;6.20;99.90;;;;;;5013936;28;20702;-75
2023/04/18 00:43:26;;;;;;;26.47;12.50;;;6.20;99.90;;;;;;5013335;28;20461;-75
2023/04/18 00:45:55;;;;;;;23.13;12.27;;;6.20;99.90;;;;;;5013646;28;20455;-74
2023/04/18 00:48:22;;;;;;;20.30;11.70;;;6.20;99.90;;;;;;5009316;28;20497;-75
2023/04/18 00:50:49;;;;;;;17.00;12.03;;;6.10;99.90;;;;;;5012676;28;20505;-75
2023/04/18 00:53:17;;;;;;;21.50;13.07;;;6.10;99.90;;;;;;4993824;28;20460;-76
2023/04/18 00:55:44;;;;;;;20.17;12.60;;;6.10;99.90;;;;;;5002122;28;20962;-75
2023/04/18 00:58:11;;;;;;;20.80;14.13;;;6.10;99.90;;;;;;5013407;28;20509;-75
2023/04/18 01:00:38;;;;;;;21.73;13.80;;;6.10;99.90;;;;;;5013215;28;20896;-75
2023/04/18 01:03:05;;;;;;;27.37;15.27;;;6.10;99.90;;;;;;5012663;28;20461;-76
2023/04/18 01:05:33;;;;;;;23.40;14.83;;;6.10;99.90;;;;;;5012937;28;20550;-75
2023/04/18 01:08:00;;;;;;;21.70;14.57;;;6.10;99.90;;;;;;5013265;28;20502;-75
2023/04/18 01:10:30;;;;;;;20.60;13.57;;;6.10;99.90;;;;;;5013045;28;20480;-75
2023/04/18 01:13:13;;;;;;;23.87;14.73;;;6.10;99.90;;;;;;5013307;28;20508;-75
2023/04/18 01:15:41;;;;;;;21.07;14.27;;;6.10;99.90;;;;;;5013217;28;20447;-75
2023/04/18 01:18:08;;;;;;;26.07;14.40;;;6.10;99.90;;;;;;5008475;28;20458;-75
2023/04/18 01:20:35;;;;;;;23.27;14.17;;;6.10;99.90;;;;;;5012839;28;20477;-75
2023/04/18 01:23:04;;;;;;;27.87;15.33;;;6.10;99.90;;;;;;5012300;28;21085;-75
2023/04/18 01:25:32;;;;;;;30.60;14.90;;;6.10;99.90;;;;;;4998851;28;20492;-75
2023/04/18 01:27:59;;;;;;;22.93;13.80;;;6.10;99.90;;;;;;4996054;28;20497;-75
2023/04/18 01:30:26;;;;;;;21.93;14.20;;;6.10;99.90;;;;;;5012418;28;20558;-75
2023/04/18 01:32:52;;;;;;;24.90;14.67;;;6.10;99.90;;;;;;5011768;28;20452;-76
2023/04/18 01:35:19;;;;;;;32.20;16.23;;;6.10;99.90;;;;;;5012558;28;20459;-75
2023/04/18 01:37:46;;;;;;;21.30;14.20;;;6.10;99.90;;;;;;5012655;28;20837;-75
2023/04/18 01:40:12;;;;;;;22.60;14.53;;;6.10;99.90;;;;;;5008730;28;20474;-75
2023/04/18 01:42:40;;;;;;;26.63;15.53;;;6.10;99.90;;;;;;5010767;28;20455;-75
2023/04/18 01:45:07;;;;;;;28.43;15.93;;;6.10;99.90;;;;;;5012254;28;20460;-75
2023/04/18 01:47:34;;;;;;;30.73;15.63;;;6.10;99.90;;;;;;5012502;28;20495;-75
2023/04/18 01:50:01;;;;;;;27.10;15.80;;;6.10;99.90;;;;;;5011985;28;20596;-75
2023/04/18 01:52:28;;;;;;;26.57;16.07;;;6.10;99.90;;;;;;5012722;28;20524;-75
2023/04/18 01:54:55;;;;;;;33.70;17.27;;;6.00;99.90;;;;;;5011935;28;20872;-75
2023/04/18 01:57:21;;;;;;;29.23;18.10;;;6.00;99.90;;;;;;5008563;28;20455;-75
2023/04/18 01:59:49;;;;;;;25.83;15.57;;;6.00;99.90;;;;;;5012332;28;20472;-75
2023/04/18 02:02:16;;;;;;;27.40;16.63;;;6.00;99.90;;;;;;5011559;28;20452;-75
2023/04/18 02:04:42;;;;;;;27.27;15.60;;;6.00;99.90;;;;;;5011866;28;20455;-75
2023/04/18 02:07:09;;;;;;;29.37;16.90;;;6.00;99.90;;;;;;5012236;28;20495;-75
2023/04/18 02:09:36;;;;;;;26.57;16.60;;;6.00;99.90;;;;;;5006312;28;20475;-75
2023/04/18 02:12:02;;;;;;;25.53;15.80;;;6.00;99.90;;;;;;5011702;28;20520;-75
2023/04/18 02:14:32;;;;;;;29.80;17.50;;;6.00;99.90;;;;;;5011670;28;20455;-75
2023/04/18 02:17:00;;;;;;;31.03;18.00;;;6.00;99.90;;;;;;5007068;28;20457;-75
2023/04/18 02:19:27;;;;;;;32.93;18.33;;;5.90;99.90;;;;;;5011845;28;20878;-75
2023/04/18 02:21:54;;;;;;;33.63;15.63;;;6.00;99.90;;;;;;5011814;28;20459;-75
2023/04/18 02:24:20;;;;;;;25.83;17.20;;;6.00;99.90;;;;;;5008230;28;20459;-75
2023/04/18 02:26:47;;;;;;;33.43;17.47;;;5.90;99.90;;;;;;5011757;28;20539;-75
2023/04/18 02:29:15;;;;;;;45.33;17.70;;;5.90;99.90;;;;;;5011557;28;20483;-75
2023/04/18 02:31:41;;;;;;;29.20;17.20;;;5.90;99.90;;;;;;5011372;28;20443;-75
2023/04/18 02:34:09;;;;;;;27.33;17.77;;;5.90;99.90;;;;;;5011116;28;21030;-75
2023/04/18 02:36:36;;;;;;;29.93;16.90;;;5.90;99.90;;;;;;5011314;28;20471;-75
2023/04/18 02:39:03;;;;;;;32.80;18.40;;;5.90;99.90;;;;;;5011512;28;20524;-75
2023/04/18 02:41:30;;;;;;;33.60;18.47;;;5.80;99.90;;;;;;5011359;28;21179;-75
2023/04/18 02:43:56;;;;;;;31.50;19.17;;;5.80;99.90;;;;;;5011650;28;20455;-74
2023/04/18 02:46:23;;;;;;;37.30;19.03;;;5.80;99.90;;;;;;5011222;28;20546;-75
2023/04/18 02:48:50;;;;;;;39.00;21.27;;;5.80;99.90;;;;;;5010978;28;21207;-74
2023/04/18 02:51:18;;;;;;;33.13;19.20;;;5.70;99.90;;;;;;5010945;28;20450;-75
2023/04/18 02:53:45;;;;;;;40.27;21.77;;;5.70;99.90;;;;;;5011315;28;20491;-74
2023/04/18 02:56:15;;;;;;;38.10;20.57;;;5.70;99.90;;;;;;5011075;28;20497;-74
2023/04/18 02:58:42;;;;;;;39.77;20.73;;;5.70;99.90;;;;;;5011946;28;20472;-75
2023/04/18 03:01:08;;;;;;;43.43;22.60;;;5.70;99.90;;;;;;5010800;28;20999;-75
2023/04/18 03:03:35;;;;;;;35.47;21.60;;;5.60;99.90;;;;;;5010376;28;20459;-75
2023/04/18 03:06:02;;;;;;;36.30;21.90;;;5.60;99.90;;;;;;5010860;28;20510;-76
2023/04/18 03:08:30;;;;;;;40.87;21.00;;;5.60;99.90;;;;;;5011180;28;20490;-75
2023/04/18 03:10:56;;;;;;;34.47;20.00;;;5.60;99.90;;;;;;5011165;28;20456;-75
2023/04/18 03:13:23;;;;;;;33.03;19.90;;;5.50;99.90;;;;;;5010341;28;20513;-75
2023/04/18 03:15:50;;;;;;;37.20;20.93;;;5.50;99.90;;;;;;5010525;28;20505;-75
2023/04/18 03:18:16;;;;;;;34.73;21.30;;;5.40;99.90;;;;;;5011062;28;20448;-75
2023/04/18 03:20:43;;;;;;;35.80;21.07;;;5.40;99.90;;;;;;5005305;28;20463;-75
2023/04/18 03:23:09;;;;;;;40.70;21.73;;;5.40;99.90;;;;;;5010781;28;20463;-75
2023/04/18 03:25:37;;;;;;;33.73;21.43;;;5.40;99.90;;;;;;5002340;28;20505;-75
2023/04/18 03:28:04;;;;;;;37.27;20.90;;;5.30;99.90;;;;;;5010871;28;20491;-75
2023/04/18 03:30:31;;;;;;;35.37;20.93;;;5.30;99.90;;;;;;5010623;28;20522;-75
2023/04/18 03:32:58;;;;;;;35.60;20.50;;;5.30;99.90;;;;;;5010496;28;20455;-75
2023/04/18 03:35:24;;;;;;;36.67;21.10;;;5.30;99.90;;;;;;5010882;28;20463;-75
2023/04/18 03:37:51;;;;;;;41.27;21.77;;;5.30;99.90;;;;;;5010780;28;21144;-75
2023/04/18 03:40:18;;;;;;;41.77;20.30;;;5.30;99.90;;;;;;5002329;28;20476;-75
2023/04/18 03:42:46;;;;;;;39.00;21.40;;;5.30;99.90;;;;;;5001291;28;20452;-75
2023/04/18 03:45:13;;;;;;;31.30;19.27;;;5.30;99.90;;;;;;5010726;28;20459;-76
2023/04/18 03:47:39;;;;;;;31.73;19.37;;;5.30;99.90;;;;;;5010417;28;20491;-75
2023/04/18 03:50:07;;;;;;;34.47;20.30;;;5.30;99.90;;;;;;5010581;28;20468;-75
2023/04/18 03:52:33;;;;;;;34.83;19.30;;;5.20;99.90;;;;;;5010442;28;20883;-75
2023/04/18 03:55:00;;;;;;;27.50;18.80;;;5.20;99.90;;;;;;5010312;28;20455;-75
2023/04/18 03:57:27;;;;;;;33.40;17.77;;;5.20;99.90;;;;;;5010342;28;20463;-75
2023/04/18 03:59:54;;;;;;;29.73;18.47;;;5.20;99.90;;;;;;5010558;28;20479;-74
2023/04/18 04:02:21;;;;;;;28.87;18.20;;;5.20;99.90;;;;;;5010243;28;20456;-74
2023/04/18 04:04:48;;;;;;;31.83;18.40;;;5.20;99.90;;;;;;4990779;28;20962;-76
2023/04/18 04:07:14;;;;;;;29.03;17.47;;;5.20;99.90;;;;;;5006865;28;20455;-73
2023/04/18 04:09:41;;;;;;;29.70;18.03;;;5.20;99.90;;;;;;5004092;28;20485;-73
2023/04/18 04:12:08;;;;;;;33.07;18.87;;;5.20;99.90;;;;;;5008947;28;21013;-73
2023/04/18 04:14:34;;;;;;;30.87;19.40;;;5.20;99.90;;;;;;5010196;28;21212;-73
2023/04/18 04:17:02;;;;;;;33.57;18.53;;;5.10;99.90;;;;;;5010496;28;20508;-73
2023/04/18 04:19:29;;;;;;;30.00;18.50;;;5.10;99.90;;;;;;5010460;28;20482;-73
2023/04/18 04:21:55;;;;;;;31.67;18.70;;;5.10;99.90;;;;;;5010385;28;20504;-73
2023/04/18 04:24:22;;;;;;;29.23;18.40;;;5.10;99.90;;;;;;5007797;28;20462;-73
2023/04/18 04:26:49;;;;;;;33.97;19.57;;;5.10;99.90;;;;;;5013474;28;20456;-73
2023/04/18 04:29:17;;;;;;;31.60;18.53;;;5.00;99.90;;;;;;5014031;28;20529;-73
2023/04/18 04:31:44;;;;;;;28.10;18.43;;;5.00;99.90;;;;;;5013856;28;20468;-73
2023/04/18 04:34:12;;;;;;;34.17;19.93;;;5.00;99.90;;;;;;5013742;28;20456;-73
2023/04/18 04:36:40;;;;;;;30.10;18.40;;;5.00;99.90;;;;;;5012413;28;20464;-73
2023/04/18 04:39:07;;;;;;;31.80;19.87;;;4.90;99.90;;;;;;5012591;28;20566;-72
2023/04/18 04:41:36;;;;;;;34.80;19.43;;;4.90;99.90;;;;;;5013557;28;20504;-73
2023/04/18 04:44:03;;;;;;;34.53;19.93;;;4.90;99.90;;;;;;5013024;28;20457;-73
2023/04/18 04:46:29;;;;;;;30.80;18.73;;;4.90;99.90;;;;;;5013732;28;20494;-73
2023/04/18 04:48:56;;;;;;;30.83;17.93;;;4.90;99.90;;;;;;5013304;28;20502;-72
2023/04/18 04:51:24;;;;;;;34.73;19.00;;;5.00;99.90;;;;;;5013353;28;20462;-72
2023/04/18 04:53:51;;;;;;;34.40;18.70;;;5.00;99.90;;;;;;5013200;28;20457;-72
2023/04/18 04:56:18;;;;;;;31.07;18.30;;;5.10;99.90;;;;;;5013322;28;20455;-73
2023/04/18 04:58:46;;;;;;;32.50;18.77;;;5.10;99.90;;;;;;5013525;28;20474;-73
2023/04/18 05:01:12;;;;;;;34.37;18.53;;;5.10;99.90;;;;;;5013359;28;20459;-73
2023/04/18 05:03:39;;;;;;;36.63;19.57;;;5.10;99.90;;;;;;5012737;28;20514;-72
2023/04/18 05:06:06;;;;;;;33.07;19.00;;;5.20;99.90;;;;;;5011938;28;20792;-73
2023/04/18 05:08:34;;;;;;;34.37;18.50;;;5.30;99.90;;;;;;5007028;28;20549;-73
2023/04/18 05:11:01;;;;;;;28.93;17.97;;;5.40;99.90;;;;;;5013265;28;20454;-73
2023/04/18 05:13:27;;;;;;;36.13;19.50;;;5.40;99.90;;;;;;5012955;28;20536;-71
2023/04/18 05:15:54;;;;;;;30.50;18.20;;;5.60;99.90;;;;;;5012495;28;20523;-72
2023/04/18 05:18:21;;;;;;;26.70;16.90;;;5.70;99.90;;;;;;5012694;28;21007;-71
2023/04/18 05:20:47;;;;;;;26.57;16.83;;;5.80;99.90;;;;;;5012454;28;20463;-72
2023/04/18 05:23:15;;;;;;;28.30;16.37;;;5.90;99.90;;;;;;5012753;28;20495;-72
2023/04/18 05:25:43;;;;;;;24.47;16.30;;;6.00;99.90;;;;;;5012682;28;20533;-72
2023/04/18 05:28:09;;;;;;;22.83;15.80;;;6.10;99.90;;;;;;5012725;28;20882;-71
2023/04/18 05:30:36;;;;;;;23.23;14.20;;;6.20;99.90;;;;;;5012661;28;21043;-72
2023/04/18 05:33:03;;;;;;;22.10;14.53;;;6.20;99.90;;;;;;5010816;28;20467;-71
2023/04/18 05:35:29;;;;;;;24.47;13.47;;;6.30;99.90;;;;;;5001464;28;20470;-72
2023/04/18 05:37:57;;;;;;;21.93;13.33;;;6.30;99.90;;;;;;5004066;28;20457;-72
2023/04/18 05:40:24;;;;;;;17.90;12.67;;;6.30;99.90;;;;;;5012647;28;20723;-72
2023/04/18 05:42:52;;;;;;;21.10;12.33;;;6.40;99.90;;;;;;5012464;28;20457;-71
2023/04/18 05:45:19;;;;;;;19.03;12.30;;;6.40;99.90;;;;;;5012594;28;20455;-72
2023/04/18 05:47:45;;;;;;;19.00;12.80;;;6.40;99.90;;;;;;5011739;28;20481;-71
2023/04/18 05:50:12;;;;;;;16.17;11.37;;;6.40;99.90;;;;;;5012450;28;20522;-71
2023/04/18 05:52:39;;;;;;;21.00;11.77;;;6.40;99.90;;;;;;5012417;28;20455;-71
2023/04/18 05:55:06;;;;;;;14.83;10.70;;;6.50;99.90;;;;;;5012084;28;20828;-72
2023/04/18 05:57:32;;;;;;;18.50;10.60;;;6.60;99.90;;;;;;5012231;28;20462;-71
2023/04/18 06:00:00;;;;;;;23.60;10.90;;;6.60;99.90;;;;;;5011989;28;20514;-71
2023/04/18 06:02:27;;;;;;;18.97;11.13;;;6.70;99.90;;;;;;5012324;28;20456;-72
2023/04/18 06:04:55;;;;;;;17.43;11.70;;;6.70;99.90;;;;;;5012252;28;20448;-72
2023/04/18 06:07:23;;;;;;;17.50;12.00;;;6.80;99.90;;;;;;5012139;28;20457;-72
2023/04/18 06:09:52;;;;;;;14.83;10.20;;;6.80;99.90;;;;;;5011969;28;20910;-71
2023/04/18 06:12:18;;;;;;;12.00;8.70;;;6.90;99.90;;;;;;5011910;28;21080;-71
2023/04/18 06:14:45;;;;;;;15.70;9.43;;;7.00;99.90;;;;;;5012050;28;20508;-72
2023/04/18 06:17:13;;;;;;;18.40;9.77;;;7.00;99.90;;;;;;5012012;28;20945;-72
2023/04/18 06:19:40;;;;;;;12.63;9.00;;;7.10;99.90;;;;;;5011932;28;20474;-72
2023/04/18 06:22:07;;;;;;;10.30;8.47;;;7.10;99.90;;;;;;5011858;28;20480;-73
2023/04/18 06:24:33;;;;;;;11.50;8.10;;;7.10;99.90;;;;;;5007168;28;20510;-72
2023/04/18 06:27:00;;;;;;;15.60;9.40;;;7.10;99.90;;;;;;4992758;28;20494;-72
2023/04/18 06:29:29;;;;;;;19.43;10.40;;;7.00;99.90;;;;;;4992230;28;20504;-72
2023/04/18 06:31:56;;;;;;;15.30;9.13;;;7.00;99.90;;;;;;4992024;28;20954;-72
2023/04/18 06:34:24;;;;;;;12.53;9.50;;;7.10;99.90;;;;;;4991842;28;20508;-72
2023/04/18 06:36:51;;;;;;;13.67;9.20;;;7.20;99.90;;;;;;4991981;28;20533;-72
2023/04/18 06:39:18;;;;;;;12.33;9.20;;;7.20;99.90;;;;;;4991740;28;20480;-72
2023/04/18 06:41:45;;;;;;;13.93;9.33;;;7.20;99.90;;;;;;4991729;28;20456;-72
2023/04/18 06:44:11;;;;;;;14.77;10.37;;;7.30;99.90;;;;;;4991578;28;20508;-72
2023/04/18 06:46:38;;;;;;;15.73;11.50;;;7.40;99.90;;;;;;4991944;28;20941;-73
2023/04/18 06:49:04;;;;;;;14.27;10.13;;;7.50;99.90;;;;;;4990478;28;20494;-72
2023/04/18 06:51:33;;;;;;;16.63;10.63;;;7.50;99.90;;;;;;4993574;28;20500;-72
2023/04/18 06:53:59;;;;;;;16.17;10.77;;;7.50;99.90;;;;;;4991710;28;20495;-72
2023/04/18 06:56:26;;;;;;;18.50;11.27;;;7.60;99.90;;;;;;4991681;28;20492;-72
2023/04/18 06:58:53;;;;;;;17.03;11.93;;;7.60;99.90;;;;;;4991557;28;20470;-72
2023/04/18 07:01:19;;;;;;;19.10;11.10;;;7.60;99.90;;;;;;4991480;28;21014;-72
2023/04/18 07:03:46;;;;;;;19.27;11.30;;;7.70;99.90;;;;;;4991159;28;21010;-72
2023/04/18 07:06:12;;;;;;;17.80;12.23;;;7.70;99.90;;;;;;5000890;28;20458;-70
2023/04/18 07:08:40;;;;;;;21.40;12.80;;;7.70;99.90;;;;;;5010933;28;20492;-71
2023/04/18 07:11:07;;;;;;;17.33;11.90;;;7.80;99.90;;;;;;5011081;28;20490;-72
2023/04/18 07:13:34;;;;;;;26.70;14.40;;;7.90;99.90;;;;;;5011039;28;20478;-71
2023/04/18 07:16:00;;;;;;;28.10;15.50;;;8.00;99.90;;;;;;5010962;28;20529;-72
2023/04/18 07:18:27;;;;;;;20.33;12.73;;;8.00;99.90;;;;;;5010764;28;20451;-71
2023/04/18 07:20:54;;;;;;;20.07;12.40;;;8.10;99.90;;;;;;5010707;28;20932;-71
2023/04/18 07:23:21;;;;;;;19.17;12.83;;;8.20;99.90;;;;;;5008162;28;20462;-71
2023/04/18 07:25:49;;;;;;;19.47;13.03;;;8.30;99.90;;;;;;4991423;28;20799;-71
2023/04/18 07:28:15;;;;;;;21.80;12.90;;;8.50;99.90;;;;;;4991279;28;20456;-71
2023/04/18 07:30:42;;;;;;;22.83;14.13;;;8.50;99.90;;;;;;4991149;28;20460;-73
2023/04/18 07:33:09;;;;;;;22.67;13.87;;;8.70;99.90;;;;;;4990718;28;20686;-72
2023/04/18 07:35:36;;;;;;;23.90;14.00;;;8.80;99.90;;;;;;4991116;28;20468;-72
2023/04/18 07:38:02;;;;;;;24.97;13.93;;;9.00;99.90;;;;;;4991220;28;20498;-72
2023/04/18 07:40:29;;;;;;;20.30;13.50;;;9.10;99.90;;;;;;5002685;28;20549;-72
2023/04/18 07:42:57;;;;;;;19.53;13.00;;;9.30;99.90;;;;;;5010829;28;20466;-72
2023/04/18 07:45:23;;;;;;;25.23;15.03;;;9.60;99.90;;;;;;5010364;28;21044;-72
2023/04/18 07:47:50;;;;;;;23.23;15.63;;;9.80;99.90;;;;;;5010670;28;20849;-72
2023/04/18 07:50:17;;;;;;;21.60;13.70;;;9.90;99.90;;;;;;5010101;28;21033;-72
2023/04/18 07:52:46;;;;;;;20.10;12.57;;;10.10;99.90;;;;;;5010757;28;20454;-72
2023/04/18 07:55:13;;;;;;;23.60;13.63;;;10.10;99.90;;;;;;5010237;28;20490;-72
2023/04/18 07:57:42;;;;;;;22.40;14.30;;;10.20;99.90;;;;;;5010602;28;20453;-72
2023/04/18 08:00:12;;;;;;;28.47;15.60;;;10.30;99.90;;;;;;5010782;28;20475;-72
2023/04/18 08:02:38;;;;;;;21.93;14.27;;;10.30;99.90;;;;;;5014497;28;20473;-72
2023/04/18 08:05:06;;;;;;;21.70;14.23;;;10.30;99.90;;;;;;5014201;28;20459;-71
2023/04/18 08:07:32;;;;;;;25.30;14.97;;;10.20;99.90;;;;;;5014507;28;20455;-72
2023/04/18 08:09:59;;;;;;;22.20;14.10;;;10.30;99.90;;;;;;5014022;28;20499;-72
2023/04/18 08:12:25;;;;;;;21.63;13.43;;;10.40;99.90;;;;;;5014023;28;20838;-71
2023/04/18 08:14:52;;;;;;;24.10;13.60;;;10.40;99.90;;;;;;5013880;28;20939;-72
2023/04/18 08:17:20;;;;;;;23.97;14.30;;;10.60;99.90;;;;;;5014346;28;20458;-71
2023/04/18 08:19:46;;;;;;;21.23;13.80;;;10.90;99.90;;;;;;5014169;28;20474;-72
2023/04/18 08:22:13;;;;;;;25.30;14.00;;;11.60;99.90;;;;;;5013959;28;20462;-71
2023/04/18 08:24:40;;;;;;;19.50;11.70;;;12.20;99.90;;;;;;5001081;28;20456;-71
2023/04/18 08:27:07;;;;;;;17.00;11.00;;;12.70;99.90;;;;;;4994830;28;20464;-71
2023/04/18 08:29:33;;;;;;;17.10;11.20;;;12.70;99.90;;;;;;4994370;28;20499;-71
2023/04/18 08:32:00;;;;;;;23.90;11.33;;;12.70;99.90;;;;;;4994523;28;20534;-71
2023/04/18 08:34:28;;;;;;;17.17;9.77;;;13.00;99.90;;;;;;4994007;28;20951;-71
2023/04/18 08:36:55;;;;;;;17.50;10.70;;;13.00;99.90;;;;;;4994373;28;20539;-71
2023/04/18 08:39:22;;;;;;;14.93;10.30;;;13.00;99.90;;;;;;4994076;28;20481;-72
2023/04/18 08:41:58;;;;;;;14.13;8.80;;;12.90;99.90;;;;;;4994176;28;20463;-72
2023/04/18 08:44:25;;;;;;;12.97;9.67;;;12.90;99.90;;;;;;4994059;28;20903;-73
2023/04/18 08:46:51;;;;;;;13.33;9.87;;;13.00;99.90;;;;;;4993979;28;20928;-73
2023/04/18 08:49:21;;;;;;;12.60;9.60;;;13.10;99.90;;;;;;4993544;28;20494;-72
2023/04/18 08:51:50;;;;;;;11.23;9.43;;;13.20;99.90;;;;;;4995805;28;20865;-72
2023/04/18 08:54:17;;;;;;;11.90;8.83;;;13.20;99.90;;;;;;4993598;28;20451;-70
2023/04/18 08:56:44;;;;;;;10.87;8.37;;;13.20;99.90;;;;;;4993874;28;20456;-70
2023/04/18 08:59:11;;;;;;;11.80;8.60;;;13.30;99.90;;;;;;4993614;28;21050;-70
2023/04/18 09:01:55;;;;;;;12.40;9.03;;;13.50;99.90;;;;;;4993846;28;20518;-72
2023/04/18 09:04:35;;;;;;;10.37;8.20;;;13.60;99.90;;;;;;4993375;28;20829;-72
2023/04/18 09:07:06;;;;;;;9.07;7.73;;;13.80;99.90;;;;;;4993991;28;20478;-72
2023/04/18 09:09:40;;;;;;;11.67;8.00;;;14.10;99.90;;;;;;5005020;28;20495;-72
2023/04/18 09:12:08;;;;;;;11.53;8.03;;;14.20;99.90;;;;;;5012266;28;20516;-72
2023/04/18 09:14:36;;;;;;;9.50;7.83;;;14.20;99.90;;;;;;5012729;28;20443;-72
2023/04/18 09:17:04;;;;;;;11.77;7.93;;;13.90;99.90;;;;;;5013376;28;20881;-72
2023/04/18 09:19:32;;;;;;;8.40;7.13;;;13.50;99.90;;;;;;5012883;28;20462;-72
2023/04/18 09:22:00;;;;;;;10.17;7.63;;;13.20;99.90;;;;;;5013025;28;20461;-72
2023/04/18 09:24:29;;;;;;;12.20;7.63;;;13.00;99.90;;;;;;5002015;28;20527;-72
2023/04/18 09:26:57;;;;;;;9.47;6.97;;;13.00;99.90;;;;;;4993188;28;20978;-72
2023/04/18 09:29:44;;;;;;;9.00;7.03;;;13.10;99.90;;;;;;4993086;28;21094;-72
2023/04/18 09:32:19;;;;;;;8.63;6.70;;;13.20;99.90;;;;;;4993140;28;20498;-72
2023/04/18 09:34:46;;;;;;;8.87;7.00;;;13.40;99.90;;;;;;4993025;28;20467;-72
2023/04/18 09:37:14;;;;;;;8.60;6.93;;;13.50;99.90;;;;;;4992946;28;20944;-70
2023/04/18 09:39:43;;;;;;;8.07;6.10;;;13.60;99.90;;;;;;4992921;28;20566;-71
2023/04/18 09:42:10;;;;;;;10.23;7.03;;;13.60;99.90;;;;;;4993248;28;20456;-70
2023/04/18 09:44:38;;;;;;;10.70;8.13;;;13.90;99.90;;;;;;4992984;28;20448;-70
2023/04/18 09:47:06;;;;;;;7.73;6.07;;;14.10;99.90;;;;;;4993093;28;20460;-70
2023/04/18 09:49:32;;;;;;;8.80;6.70;;;14.60;99.90;;;;;;4992368;28;20542;-70
2023/04/18 09:52:01;;;;;;;7.57;5.97;;;14.90;99.90;;;;;;4994345;28;20495;-71
2023/04/18 09:54:32;;;;;;;7.40;6.30;;;15.00;99.90;;;;;;4992558;28;20879;-70
2023/04/18 09:57:02;;;;;;;8.43;6.40;;;15.00;99.90;;;;;;4992903;28;20467;-71
2023/04/18 09:59:36;;;;;;;6.93;6.13;;;14.90;99.90;;;;;;4992559;28;20472;-71
2023/04/18 10:02:12;;;;;;;8.00;6.27;;;14.80;99.90;;;;;;4992695;28;20503;-70
2023/04/18 10:04:38;;;;;;;8.10;6.37;;;14.90;99.90;;;;;;4992744;28;20446;-70
2023/04/18 10:07:05;;;;;;;9.97;6.30;;;15.20;99.90;;;;;;4992614;28;20928;-70
2023/04/18 10:09:35;;;;;;;6.20;5.30;;;15.20;99.90;;;;;;4992480;28;20492;-72
2023/04/18 10:12:03;;;;;;;6.67;5.70;;;15.10;99.90;;;;;;4992582;28;20452;-72
2023/04/18 10:14:33;;;;;;;6.50;5.80;;;15.10;99.90;;;;;;4992086;28;20506;-70
2023/04/18 10:17:00;;;;;;;7.90;6.93;;;15.20;99.90;;;;;;4992643;28;20500;-71
2023/04/18 10:19:29;;;;;;;7.00;6.00;;;15.30;99.90;;;;;;4992431;28;20488;-71
2023/04/18 10:21:57;;;;;;;6.93;6.00;;;15.00;99.90;;;;;;4992455;28;20460;-70
2023/04/18 10:24:46;;;;;;;9.93;6.37;;;14.80;99.90;;;;;;5003253;28;20489;-71
2023/04/18 10:27:15;;;;;;;7.47;6.00;;;14.70;99.90;;;;;;5011630;28;20458;-71
2023/04/18 10:29:49;;;;;;;6.73;6.03;;;14.70;99.90;;;;;;5011566;28;20898;-71
2023/04/18 10:32:16;;;;;;;8.60;6.37;;;14.50;99.90;;;;;;5011753;28;20473;-71
2023/04/18 10:34:43;;;;;;;7.23;6.23;;;14.40;99.90;;;;;;5011526;28;20451;-71
2023/04/18 10:37:11;;;;;;;6.67;5.70;;;14.60;99.90;;;;;;5011497;28;20939;-71
2023/04/18 10:39:49;;;;;;;7.17;5.47;;;14.90;99.90;;;;;;5011394;28;20882;-71
2023/04/18 10:42:17;;;;;;;7.17;6.07;;;15.00;99.90;;;;;;5011515;28;20509;-72
2023/04/18 10:44:43;;;;;;;9.03;6.50;;;14.80;99.90;;;;;;5011567;28;20457;-71
2023/04/18 10:47:31;;;;;;;6.90;6.20;;;14.70;99.90;;;;;;5011599;28;20459;-71
2023/04/18 10:50:02;;;;;;;8.40;6.30;;;14.70;99.90;;;;;;5011217;28;20493;-72
2023/04/18 10:52:29;;;;;;;8.40;7.00;;;14.50;99.90;;;;;;5011854;28;20460;-71
2023/04/18 10:55:10;;;;;;;6.63;5.93;;;14.70;99.90;;;;;;5011382;28;20451;-72
2023/04/18 10:57:42;;;;;;;7.17;6.47;;;15.10;99.90;;;;;;5011386;28;20458;-72
2023/04/18 11:00:12;;;;;;;6.97;6.27;;;15.30;99.90;;;;;;5010961;28;21097;-72
2023/04/18 11:02:40;;;;;;;6.93;6.23;;;15.50;99.90;;;;;;5011451;28;20876;-72
2023/04/18 11:05:07;;;;;;;7.60;6.60;;;15.80;99.90;;;;;;5011063;28;20955;-72
2023/04/18 11:07:36;;;;;;;8.43;7.33;;;15.90;99.90;;;;;;5011288;28;20434;-72
2023/04/18 11:10:03;;;;;;;7.20;6.50;;;16.10;99.90;;;;;;5010929;28;20487;-72
2023/04/18 11:12:32;;;;;;;7.10;6.40;;;16.20;99.90;;;;;;5010927;28;20550;-72
2023/04/18 11:15:01;;;;;;;9.30;7.00;;;15.90;99.90;;;;;;5011089;28;20538;-73
2023/04/18 11:17:32;;;;;;;9.23;6.93;;;15.70;99.90;;;;;;5011336;28;20465;-72
2023/04/18 11:20:07;;;;;;;7.60;6.90;;;15.80;99.90;;;;;;5011333;28;20851;-72
2023/04/18 11:22:43;;;;;;;7.83;6.97;;;15.70;99.90;;;;;;5010828;28;20841;-72
2023/04/18 11:25:10;;;;;;;10.73;7.93;;;15.60;99.90;;;;;;4994901;28;20455;-72
2023/04/18 11:27:37;;;;;;;8.87;7.33;;;15.30;99.90;;;;;;4991358;28;20448;-72
2023/04/18 11:30:07;;;;;;;10.57;6.90;;;15.30;99.90;;;;;;4991182;28;20932;-72
2023/04/18 11:32:34;;;;;;;8.13;7.07;;;15.80;99.90;;;;;;4991601;28;20451;-72
2023/04/18 11:35:00;;;;;;;8.73;7.60;;;16.10;99.90;;;;;;4990693;28;20456;-72
2023/04/18 11:37:27;;;;;;;12.40;7.83;;;16.00;99.90;;;;;;4990991;28;20438;-72
2023/04/18 11:39:54;;;;;;;12.47;7.20;;;15.80;99.90;;;;;;4991164;28;21039;-71
2023/04/18 11:42:21;;;;;;;8.50;7.00;;;15.60;99.90;;;;;;4990919;28;20869;-72
2023/04/18 11:44:48;;;;;;;11.10;7.97;;;15.60;99.90;;;;;;4990921;28;20996;-71
2023/04/18 11:47:27;;;;;;;9.90;7.63;;;15.30;99.90;;;;;;4991505;28;20456;-72
2023/04/18 11:49:58;;;;;;;11.10;7.30;;;15.00;99.90;;;;;;4993162;28;20494;-70
2023/04/18 11:52:27;;;;;;;9.80;8.20;;;14.80;99.90;;;;;;4991114;28;20495;-71
2023/04/18 11:54:54;;;;;;;11.97;8.00;;;14.70;99.90;;;;;;4991041;28;20456;-71
2023/04/18 11:57:24;;;;;;;9.83;8.00;;;14.70;99.90;;;;;;4990948;28;20969;-71
2023/04/18 11:59:52;;;;;;;10.93;7.67;;;14.70;99.90;;;;;;4990943;28;21143;-71
2023/04/18 12:02:19;;;;;;;8.73;6.87;;;14.80;99.90;;;;;;4990825;28;20460;-70
2023/04/18 12:04:52;;;;;;;8.97;7.17;;;14.70;99.90;;;;;;4991170;28;20502;-70
2023/04/18 12:07:36;;;;;;;8.10;7.23;;;14.70;99.90;;;;;;4991118;28;20456;-70
2023/04/18 12:10:04;;;;;;;12.43;8.40;;;14.80;99.90;;;;;;4990709;28;20578;-71
2023/04/18 12:12:31;;;;;;;10.07;7.90;;;14.90;99.90;;;;;;4990643;28;20452;-70
2023/04/18 12:15:03;;;;;;;11.00;8.20;;;14.80;99.90;;;;;;4990669;28;21014;-70
2023/04/18 12:17:31;;;;;;;11.67;8.10;;;14.80;99.90;;;;;;4991093;28;20451;-70
2023/04/18 12:20:02;;;;;;;11.43;7.60;;;14.80;99.90;;;;;;4990899;28;20471;-70
2023/04/18 12:22:43;;;;;;;9.90;8.13;;;14.90;99.90;;;;;;4990852;28;20518;-70
2023/04/18 12:25:21;;;;;;;10.27;8.03;;;14.80;99.90;;;;;;5007971;28;20850;-71
2023/04/18 12:27:53;;;;;;;12.10;8.37;;;14.70;99.90;;;;;;5010484;28;20461;-71
2023/04/18 12:30:20;;;;;;;10.40;8.60;;;14.70;99.90;;;;;;5010209;28;20982;-70
2023/04/18 12:32:49;;;;;;;13.93;9.53;;;14.60;99.90;;;;;;5010378;28;20447;-70
2023/04/18 12:35:18;;;;;;;11.60;9.20;;;14.50;99.90;;;;;;5010027;28;20455;-71
2023/04/18 12:37:46;;;;;;;14.63;9.20;;;14.70;99.90;;;;;;5010109;28;20462;-71
2023/04/18 12:40:13;;;;;;;11.20;9.07;;;14.70;99.90;;;;;;5010373;28;20478;-71
2023/04/18 12:42:40;;;;;;;12.23;9.27;;;14.60;99.90;;;;;;5010434;28;20451;-71